createdAt,value
2022-08-28T00:02:06.517Z,17.77
2022-08-28T00:04:34.681Z,19.30
2022-08-28T00:07:02.297Z,13.77
2022-08-28T00:09:29.574Z,16.63
2022-08-28T00:11:56.979Z,14.18
2022-08-28T00:14:24.602Z,21.98
2022-08-28T00:16:54.433Z,15.48
2022-08-28T00:19:24.043Z,18.02
2022-08-28T00:21:52.221Z,14.25
2022-08-28T00:24:19.244Z,13.52
2022-08-28T00:27:05.434Z,16.05
2022-08-28T00:29:32.769Z,13.43
2022-08-28T00:32:00.359Z,16.67
2022-08-28T00:34:33.068Z,17.42
2022-08-28T00:37:01.783Z,14.20
2022-08-28T00:39:29.082Z,16.05
2022-08-28T00:41:58.272Z,19.52
2022-08-28T00:44:28.793Z,13.65
2022-08-28T00:46:57.494Z,19.05
2022-08-28T00:49:28.215Z,17.10
2022-08-28T00:52:08.213Z,19.33
2022-08-28T00:54:58.937Z,14.55
2022-08-28T00:57:36.330Z,14.35
2022-08-28T01:00:08.021Z,14.77
2022-08-28T01:02:35.416Z,16.80
2022-08-28T01:05:02.421Z,14.07
2022-08-28T01:07:29.706Z,15.55
2022-08-28T01:09:57.254Z,17.02
2022-08-28T01:12:28.514Z,19.92
2022-08-28T01:15:01.264Z,19.63
2022-08-28T01:17:33.123Z,18.90
2022-08-28T01:20:06.391Z,15.20
2022-08-28T01:22:38.756Z,21.10
2022-08-28T01:25:13.268Z,24.92
2022-08-28T01:27:44.265Z,17.42
2022-08-28T01:30:14.299Z,15.02
2022-08-28T01:32:45.632Z,16.05
2022-08-28T01:35:23.222Z,19.05
2022-08-28T01:37:50.668Z,13.88
2022-08-28T01:40:25.662Z,15.98
2022-08-28T01:42:52.936Z,13.45
2022-08-28T01:45:24.313Z,13.60
2022-08-28T01:47:51.313Z,29.05
2022-08-28T01:50:20.723Z,12.95
2022-08-28T01:52:47.573Z,15.45
2022-08-28T01:55:21.616Z,14.85
2022-08-28T01:57:53.860Z,19.70
2022-08-28T02:00:27.694Z,16.63
2022-08-28T02:02:56.896Z,23.48
2022-08-28T02:05:25.790Z,15.73
2022-08-28T02:07:53.036Z,16.02
2022-08-28T02:10:24.696Z,17.17
2022-08-28T02:15:23.650Z,19.02
2022-08-28T02:17:51.883Z,15.43
2022-08-28T02:20:19.891Z,16.23
2022-08-28T02:22:47.375Z,11.82
2022-08-28T02:25:15.378Z,14.20
2022-08-28T02:27:43.217Z,18.35
2022-08-28T02:30:12.572Z,13.63
2022-08-28T02:32:39.918Z,13.68
2022-08-28T02:35:12.066Z,11.25
2022-08-28T02:37:40.172Z,18.58
2022-08-28T02:40:08.233Z,17.38
2022-08-28T02:42:35.407Z,19.17
2022-08-28T02:45:02.729Z,21.20
2022-08-28T02:47:30.039Z,17.60
2022-08-28T02:49:57.091Z,20.33
2022-08-28T02:52:24.655Z,17.42
2022-08-28T02:54:51.923Z,17.88
2022-08-28T02:57:19.984Z,17.35
2022-08-28T02:59:47.860Z,15.40
2022-08-28T03:02:15.058Z,21.50
2022-08-28T03:04:43.693Z,22.38
2022-08-28T03:07:15.208Z,14.85
2022-08-28T03:09:44.251Z,16.50
2022-08-28T03:12:13.478Z,15.02
2022-08-28T03:14:40.403Z,17.65
2022-08-28T03:17:07.831Z,13.68
2022-08-28T03:19:35.370Z,18.10
2022-08-28T03:22:02.162Z,17.38
2022-08-28T03:24:29.212Z,16.15
2022-08-28T03:26:56.462Z,19.42
2022-08-28T03:29:23.451Z,17.70
2022-08-28T03:31:51.077Z,13.73
2022-08-28T03:34:17.925Z,17.13
2022-08-28T03:36:44.845Z,17.25
2022-08-28T03:39:12.199Z,12.00
2022-08-28T03:41:40.525Z,18.98
2022-08-28T03:44:07.863Z,15.63
2022-08-28T03:46:35.759Z,17.50
2022-08-28T03:49:04.415Z,19.90
2022-08-28T03:51:34.228Z,16.17
2022-08-28T03:54:02.663Z,15.48
2022-08-28T03:56:30.943Z,12.13
2022-08-28T03:59:01.150Z,18.55
2022-08-28T04:01:28.815Z,18.17
2022-08-28T04:03:56.303Z,15.20
2022-08-28T04:06:23.913Z,15.00
2022-08-28T04:08:51.147Z,17.95
2022-08-28T04:11:18.910Z,15.25
2022-08-28T04:13:46.192Z,15.30
2022-08-28T04:16:18.102Z,17.30
2022-08-28T04:18:48.057Z,20.52
2022-08-28T04:21:23.716Z,19.63
2022-08-28T04:23:51.387Z,17.20
2022-08-28T04:26:22.098Z,15.35
2022-08-28T04:28:49.901Z,18.10
2022-08-28T04:31:20.057Z,18.08
2022-08-28T04:34:05.032Z,14.95
2022-08-28T04:36:33.830Z,17.65
2022-08-28T04:39:01.627Z,17.45
2022-08-28T04:41:28.893Z,19.38
2022-08-28T04:43:57.498Z,22.23
2022-08-28T04:46:25.343Z,17.42
2022-08-28T04:48:52.241Z,17.55
2022-08-28T04:51:20.616Z,16.92
2022-08-28T04:53:47.509Z,16.88
2022-08-28T04:56:15.685Z,10.20
2022-08-28T04:58:43.824Z,14.30
2022-08-28T05:01:18.962Z,13.45
2022-08-28T05:03:50.517Z,13.25
2022-08-28T05:06:21.821Z,16.00
2022-08-28T05:08:49.463Z,17.90
2022-08-28T05:11:33.339Z,15.77
2022-08-28T05:14:05.691Z,15.00
2022-08-28T05:16:39.887Z,14.73
2022-08-28T05:19:07.143Z,17.73
2022-08-28T05:21:34.376Z,14.68
2022-08-28T05:24:01.512Z,21.35
2022-08-28T05:26:29.962Z,19.83
2022-08-28T05:28:57.967Z,15.35
2022-08-28T05:31:25.790Z,16.98
2022-08-28T05:33:53.759Z,14.30
2022-08-28T05:36:23.340Z,12.05
2022-08-28T05:38:57.270Z,13.00
2022-08-28T05:41:30.201Z,12.50
2022-08-28T05:44:02.757Z,16.23
2022-08-28T05:46:31.095Z,17.42
2022-08-28T05:49:05.625Z,14.82
2022-08-28T05:51:36.359Z,11.88
2022-08-28T05:54:03.993Z,16.33
2022-08-28T05:56:35.133Z,13.40
2022-08-28T05:59:04.464Z,15.30
2022-08-28T06:01:34.066Z,15.73
2022-08-28T06:04:03.677Z,11.50
2022-08-28T06:06:38.036Z,16.52
2022-08-28T06:09:12.014Z,14.70
2022-08-28T06:11:44.630Z,16.90
2022-08-28T06:14:17.456Z,17.05
2022-08-28T06:16:50.840Z,15.75
2022-08-28T06:19:18.442Z,17.30
2022-08-28T06:21:48.097Z,14.75
2022-08-28T06:24:15.521Z,14.80
2022-08-28T06:26:42.395Z,14.30
2022-08-28T06:29:11.742Z,21.88
2022-08-28T06:31:40.231Z,18.70
2022-08-28T06:34:09.026Z,16.83
2022-08-28T06:36:41.046Z,15.80
2022-08-28T06:39:10.191Z,18.30
2022-08-28T06:41:43.051Z,11.15
2022-08-28T06:44:13.903Z,15.48
2022-08-28T06:46:42.059Z,15.07
2022-08-28T06:49:10.009Z,16.25
2022-08-28T06:51:37.279Z,13.95
2022-08-28T06:54:04.951Z,13.00
2022-08-28T06:56:33.389Z,17.63
2022-08-28T06:59:00.734Z,18.95
2022-08-28T07:01:34.864Z,12.38
2022-08-28T07:04:06.637Z,15.60
2022-08-28T07:09:02.822Z,21.38
2022-08-28T07:11:32.203Z,14.57
2022-08-28T07:13:59.784Z,15.02
2022-08-28T07:16:30.014Z,17.13
2022-08-28T07:18:57.598Z,19.95
2022-08-28T07:21:24.485Z,17.67
2022-08-28T07:23:51.702Z,16.02
2022-08-28T07:26:23.391Z,18.75
2022-08-28T07:28:52.716Z,15.15
2022-08-28T07:31:37.880Z,14.93
2022-08-28T07:34:05.218Z,20.83
2022-08-28T07:36:32.417Z,13.00
2022-08-28T07:39:00.204Z,17.02
2022-08-28T07:41:32.861Z,13.00
2022-08-28T07:44:19.116Z,18.80
2022-08-28T07:46:46.713Z,13.13
2022-08-28T07:49:17.255Z,12.63
2022-08-28T07:51:46.891Z,13.25
2022-08-28T07:54:17.796Z,16.13
2022-08-28T07:59:16.699Z,15.75
2022-08-28T08:01:47.000Z,18.75
2022-08-28T08:04:16.315Z,12.75
2022-08-28T08:06:44.900Z,15.82
2022-08-28T08:09:16.222Z,18.75
2022-08-28T08:11:43.724Z,14.73
2022-08-28T08:14:12.283Z,17.63
2022-08-28T08:16:43.624Z,18.75
2022-08-28T08:19:15.319Z,13.25
2022-08-28T08:24:12.236Z,19.15
2022-08-28T08:26:59.431Z,13.20
2022-08-28T08:29:35.887Z,19.38
2022-08-28T08:32:08.170Z,15.20
2022-08-28T08:34:40.735Z,17.75
2022-08-28T08:37:08.706Z,10.95
2022-08-28T08:39:37.220Z,16.42
2022-08-28T08:42:10.437Z,13.43
2022-08-28T08:44:43.701Z,15.95
2022-08-28T08:47:29.402Z,15.18
2022-08-28T08:50:00.398Z,13.82
2022-08-28T08:52:27.680Z,15.48
2022-08-28T08:55:23.613Z,16.23
2022-08-28T08:58:07.734Z,14.63
2022-08-28T09:00:57.503Z,12.77
2022-08-28T09:03:47.227Z,21.75
2022-08-28T09:06:26.183Z,10.80
2022-08-28T09:08:58.914Z,15.30
2022-08-28T09:11:34.509Z,12.32
2022-08-28T09:14:19.563Z,13.70
2022-08-28T09:16:48.048Z,10.30
2022-08-28T09:19:19.692Z,14.60
2022-08-28T09:21:48.165Z,15.63
2022-08-28T09:24:28.515Z,13.25
2022-08-28T09:27:01.130Z,18.38
2022-08-28T09:29:43.322Z,11.10
2022-08-28T09:32:16.563Z,16.92
2022-08-28T09:35:09.577Z,17.17
2022-08-28T09:37:37.494Z,11.27
2022-08-28T09:40:13.600Z,12.98
2022-08-28T09:42:59.626Z,14.90
2022-08-28T09:45:29.275Z,12.15
2022-08-28T09:48:00.775Z,12.18
2022-08-28T09:50:41.761Z,13.40
2022-08-28T09:53:09.078Z,12.35
2022-08-28T09:55:46.254Z,15.80
2022-08-28T09:58:13.939Z,17.40
2022-08-28T10:00:51.406Z,12.88
2022-08-28T10:03:26.144Z,12.23
2022-08-28T10:06:00.349Z,12.05
2022-08-28T10:09:06.672Z,12.57
2022-08-28T10:11:44.582Z,18.35
2022-08-28T10:14:33.455Z,9.68
2022-08-28T10:17:41.404Z,14.30
2022-08-28T10:20:19.964Z,8.50
2022-08-28T10:22:56.242Z,9.40
2022-08-28T10:25:36.056Z,10.32
2022-08-28T10:28:44.844Z,12.65
2022-08-28T10:31:27.296Z,8.43
2022-08-28T10:34:36.711Z,10.15
2022-08-28T10:37:15.622Z,12.85
2022-08-28T10:39:58.952Z,17.77
2022-08-28T10:42:35.906Z,12.68
2022-08-28T10:45:06.900Z,10.02
2022-08-28T10:47:38.343Z,15.32
2022-08-28T10:50:15.644Z,13.25
2022-08-28T10:52:47.924Z,7.55
2022-08-28T10:55:25.216Z,15.55
2022-08-28T10:58:00.622Z,12.15
2022-08-28T11:00:28.803Z,11.02
2022-08-28T11:02:59.980Z,8.55
2022-08-28T11:05:32.509Z,17.27
2022-08-28T11:08:05.273Z,15.02
2022-08-28T11:10:32.228Z,16.38
2022-08-28T11:13:00.063Z,16.05
2022-08-28T11:15:29.486Z,9.45
2022-08-28T11:18:19.171Z,10.38
2022-08-28T11:21:03.342Z,8.05
2022-08-28T11:23:49.816Z,10.63
2022-08-28T11:26:30.355Z,13.40
2022-08-28T11:29:00.405Z,16.25
2022-08-28T11:31:34.529Z,9.90
2022-08-28T11:34:02.865Z,7.28
2022-08-28T11:36:50.264Z,10.70
2022-08-28T11:39:21.547Z,12.65
2022-08-28T11:42:10.374Z,10.82
2022-08-28T11:44:44.026Z,9.98
2022-08-28T11:47:43.542Z,12.30
2022-08-28T11:50:24.089Z,14.60
2022-08-28T11:53:16.901Z,10.48
2022-08-28T11:55:56.920Z,15.68
2022-08-28T11:58:54.718Z,9.63
2022-08-28T12:01:32.410Z,10.98
2022-08-28T12:04:08.031Z,19.00
2022-08-28T12:06:54.673Z,11.85
2022-08-28T12:09:44.487Z,9.73
2022-08-28T12:12:23.322Z,13.75
2022-08-28T12:14:56.199Z,9.80
2022-08-28T12:17:24.510Z,9.95
2022-08-28T12:20:04.465Z,15.85
2022-08-28T12:22:52.894Z,10.77
2022-08-28T12:25:42.304Z,12.25
2022-08-28T12:28:22.529Z,11.52
2022-08-28T12:31:48.500Z,8.75
2022-08-28T12:34:36.603Z,10.35
2022-08-28T12:37:07.570Z,9.55
2022-08-28T12:39:34.541Z,10.45
2022-08-28T12:42:03.532Z,12.13
2022-08-28T12:44:33.180Z,11.27
2022-08-28T12:47:00.465Z,12.18
2022-08-28T12:49:32.887Z,17.55
2022-08-28T12:52:16.685Z,10.55
2022-08-28T12:54:48.644Z,10.57
2022-08-28T12:57:19.889Z,11.50
2022-08-28T13:02:29.117Z,10.68
2022-08-28T13:05:02.015Z,8.80
2022-08-28T13:07:45.609Z,8.13
2022-08-28T13:10:25.676Z,16.25
2022-08-28T13:13:05.853Z,13.60
2022-08-28T13:15:54.476Z,15.17
2022-08-28T13:18:40.683Z,11.23
2022-08-28T13:21:28.705Z,9.68
2022-08-28T13:24:21.916Z,7.32
2022-08-28T13:27:08.400Z,11.95
2022-08-28T13:29:36.967Z,17.77
2022-08-28T13:32:07.378Z,15.18
2022-08-28T13:34:37.582Z,8.55
2022-08-28T13:37:14.634Z,10.07
2022-08-28T13:39:47.814Z,16.27
2022-08-28T13:42:18.063Z,11.50
2022-08-28T13:44:49.423Z,8.60
2022-08-28T13:47:17.400Z,10.68
2022-08-28T13:49:44.390Z,10.40
2022-08-28T13:52:11.729Z,16.25
2022-08-28T13:54:43.753Z,10.75
2022-08-28T13:57:13.770Z,10.70
2022-08-28T13:59:41.163Z,11.40
2022-08-28T14:02:32.262Z,12.13
2022-08-28T14:04:59.833Z,11.40
2022-08-28T14:07:26.813Z,13.52
2022-08-28T14:09:56.456Z,14.98
2022-08-28T14:12:32.737Z,10.38
2022-08-28T14:15:01.187Z,9.63
2022-08-28T14:17:28.523Z,6.45
2022-08-28T14:19:55.807Z,8.40
2022-08-28T14:22:22.731Z,12.40
2022-08-28T14:24:49.771Z,8.32
2022-08-28T14:27:17.879Z,12.15
2022-08-28T14:29:44.731Z,14.35
2022-08-28T14:32:12.202Z,10.15
2022-08-28T14:34:39.364Z,16.15
2022-08-28T14:37:06.551Z,12.10
2022-08-28T14:39:33.751Z,12.43
2022-08-28T14:42:01.839Z,14.63
2022-08-28T14:44:29.148Z,13.38
2022-08-28T14:46:56.940Z,11.55
2022-08-28T14:49:25.468Z,12.60
2022-08-28T14:51:54.256Z,15.13
2022-08-28T14:54:24.387Z,14.45
2022-08-28T14:56:53.000Z,10.67
2022-08-28T14:59:26.356Z,12.60
2022-08-28T15:01:55.610Z,10.98
2022-08-28T15:04:24.040Z,8.63
2022-08-28T15:06:55.880Z,9.27
2022-08-28T15:09:23.322Z,10.95
2022-08-28T15:11:50.366Z,9.73
2022-08-28T15:14:17.740Z,7.55
2022-08-28T15:16:47.811Z,8.80
2022-08-28T15:19:18.044Z,10.17
2022-08-28T15:21:48.402Z,11.93
2022-08-28T15:24:21.391Z,18.70
2022-08-28T15:26:48.996Z,9.07
2022-08-28T15:29:16.608Z,8.85
2022-08-28T15:31:46.349Z,11.40
2022-08-28T15:34:22.545Z,11.52
2022-08-28T15:36:54.663Z,8.40
2022-08-28T15:39:41.928Z,10.57
2022-08-28T15:42:10.318Z,10.45
2022-08-28T15:44:37.508Z,8.25
2022-08-28T15:47:06.315Z,10.80
2022-08-28T15:49:46.588Z,12.63
2022-08-28T15:52:19.089Z,10.77
2022-08-28T15:54:47.229Z,10.60
2022-08-28T15:57:14.342Z,12.00
2022-08-28T15:59:50.076Z,8.52
2022-08-28T16:02:20.156Z,11.88
2022-08-28T16:04:48.685Z,6.70
2022-08-28T16:07:16.455Z,8.52
2022-08-28T16:09:43.286Z,12.75
2022-08-28T16:12:10.449Z,8.90
2022-08-28T16:14:37.276Z,6.63
2022-08-28T16:17:05.738Z,8.43
2022-08-28T16:19:41.518Z,10.48
2022-08-28T16:22:13.100Z,8.75
2022-08-28T16:24:40.125Z,7.55
2022-08-28T16:27:09.699Z,8.43
2022-08-28T16:29:40.122Z,9.20
2022-08-28T16:32:07.455Z,10.73
2022-08-28T16:34:34.865Z,6.78
2022-08-28T16:37:03.854Z,7.57
2022-08-28T16:39:30.898Z,12.02
2022-08-28T16:41:57.894Z,10.82
2022-08-28T16:44:26.693Z,8.60
2022-08-28T16:46:55.194Z,7.47
2022-08-28T16:49:23.592Z,7.97
2022-08-28T16:51:51.471Z,9.20
2022-08-28T16:54:19.201Z,8.05
2022-08-28T16:56:46.562Z,10.63
2022-08-28T16:59:16.628Z,7.90
2022-08-28T17:01:43.781Z,7.65
2022-08-28T17:04:12.399Z,8.88
2022-08-28T17:06:40.172Z,14.07
2022-08-28T17:09:07.449Z,8.85
2022-08-28T17:11:34.439Z,6.80
2022-08-28T17:14:01.683Z,13.05
2022-08-28T17:16:31.497Z,11.75
2022-08-28T17:18:59.801Z,10.40
2022-08-28T17:21:45.849Z,9.93
2022-08-28T17:24:13.231Z,13.15
2022-08-28T17:26:41.893Z,9.10
2022-08-28T17:29:09.452Z,9.02
2022-08-28T17:31:37.433Z,9.25
2022-08-28T17:34:07.479Z,14.55
2022-08-28T17:36:35.888Z,11.98
2022-08-28T17:39:05.943Z,11.43
2022-08-28T17:41:33.954Z,9.38
2022-08-28T17:44:02.391Z,9.75
2022-08-28T17:46:35.306Z,10.95
2022-08-28T17:49:05.905Z,12.15
2022-08-28T17:51:43.573Z,11.00
2022-08-28T17:54:17.837Z,10.40
2022-08-28T17:56:46.697Z,11.93
2022-08-28T17:59:15.293Z,7.47
2022-08-28T18:01:46.524Z,11.13
2022-08-28T18:04:21.477Z,9.73
2022-08-28T18:06:53.663Z,9.02
2022-08-28T18:09:21.260Z,7.57
2022-08-28T18:11:48.598Z,9.77
2022-08-28T18:14:15.568Z,6.97
2022-08-28T18:16:42.944Z,11.18
2022-08-28T18:19:11.177Z,6.05
2022-08-28T18:21:39.288Z,12.05
2022-08-28T18:24:07.039Z,7.78
2022-08-28T18:26:34.883Z,10.57
2022-08-28T18:29:01.889Z,5.65
2022-08-28T18:31:32.363Z,5.32
2022-08-28T18:34:01.305Z,6.53
2022-08-28T18:36:43.479Z,6.78
2022-08-28T18:39:10.964Z,8.52
2022-08-28T18:41:43.628Z,7.78
2022-08-28T18:44:15.869Z,7.65
2022-08-28T18:46:44.085Z,6.65
2022-08-28T18:49:13.551Z,4.50
2022-08-28T18:51:44.094Z,5.82
2022-08-28T18:54:14.333Z,5.95
2022-08-28T18:56:44.592Z,4.90
2022-08-28T18:59:11.913Z,6.70
2022-08-28T19:01:39.424Z,5.75
2022-08-28T19:04:07.129Z,5.15
2022-08-28T19:06:35.015Z,4.70
2022-08-28T19:09:05.309Z,3.72
2022-08-28T19:11:33.841Z,6.97
2022-08-28T19:14:03.619Z,5.18
2022-08-28T19:16:32.059Z,5.15
2022-08-28T19:19:03.742Z,4.93
2022-08-28T19:21:32.898Z,5.05
2022-08-28T19:24:00.302Z,4.72
2022-08-28T19:26:29.461Z,3.83
2022-08-28T19:28:56.946Z,2.70
2022-08-28T19:31:26.692Z,4.30
2022-08-28T19:33:56.291Z,2.58
2022-08-28T19:36:27.183Z,3.10
2022-08-28T19:38:54.386Z,3.28
2022-08-28T19:41:22.896Z,2.65
2022-08-28T19:43:50.556Z,3.53
2022-08-28T19:46:19.345Z,2.92
2022-08-28T19:48:48.601Z,4.10
2022-08-28T19:51:18.235Z,2.83
2022-08-28T19:53:57.328Z,4.80
2022-08-28T19:56:31.608Z,2.88
2022-08-28T19:59:01.155Z,5.15
2022-08-28T20:01:31.498Z,3.20
2022-08-28T20:04:00.152Z,5.05
2022-08-28T20:06:30.360Z,4.95
2022-08-28T20:08:57.822Z,5.45
2022-08-28T20:11:29.101Z,7.03
2022-08-28T20:14:03.922Z,2.85
2022-08-28T20:16:34.729Z,5.20
2022-08-28T20:19:03.260Z,2.83
2022-08-28T20:21:37.898Z,4.15
2022-08-28T20:24:11.808Z,2.47
2022-08-28T20:26:39.832Z,3.90
2022-08-28T20:29:09.385Z,3.58
2022-08-28T20:31:41.910Z,3.22
2022-08-28T20:34:11.738Z,3.08
2022-08-28T20:36:39.518Z,2.72
2022-08-28T20:39:09.552Z,3.17
2022-08-28T20:41:39.260Z,5.80
2022-08-28T20:44:09.399Z,3.50
2022-08-28T20:46:41.360Z,2.63
2022-08-28T20:49:11.309Z,4.20
2022-08-28T20:51:56.961Z,3.22
2022-08-28T20:54:28.849Z,3.72
2022-08-28T20:59:35.489Z,3.80
2022-08-28T21:02:10.926Z,5.53
2022-08-28T21:04:39.782Z,4.32
2022-08-28T21:07:06.750Z,6.40
2022-08-28T21:09:58.145Z,4.53
2022-08-28T21:12:21.528Z,4.60
2022-08-28T21:14:52.479Z,3.72
2022-08-28T21:17:28.697Z,4.25
2022-08-28T21:20:03.060Z,5.72
2022-08-28T21:22:32.916Z,6.43
2022-08-28T21:25:01.867Z,3.47
2022-08-28T21:27:30.462Z,3.17
2022-08-28T21:29:59.462Z,15.02
2022-08-28T21:32:28.363Z,3.65
2022-08-28T21:34:55.858Z,4.25
2022-08-28T21:37:23.542Z,5.35
2022-08-28T21:39:50.875Z,7.63
2022-08-28T21:42:18.637Z,3.15
2022-08-28T21:44:51.771Z,3.45
2022-08-28T21:47:23.502Z,4.78
2022-08-28T21:49:55.015Z,5.47
2022-08-28T21:52:24.898Z,7.53
2022-08-28T21:54:56.850Z,4.22
2022-08-28T21:57:24.410Z,5.40
2022-08-28T21:59:51.322Z,4.78
2022-08-28T22:02:18.417Z,4.20
2022-08-28T22:04:45.457Z,3.25
2022-08-28T22:07:14.139Z,4.47
2022-08-28T22:09:41.866Z,7.55
2022-08-28T22:12:10.175Z,7.05
2022-08-28T22:14:38.249Z,4.00
2022-08-28T22:17:11.254Z,4.10
2022-08-28T22:19:39.817Z,5.90
2022-08-28T22:22:26.185Z,5.85
2022-08-28T22:24:54.033Z,4.53
2022-08-28T22:27:21.007Z,5.18
2022-08-28T22:29:48.113Z,3.58
2022-08-28T22:32:15.422Z,4.70
2022-08-28T22:34:45.401Z,4.20
2022-08-28T22:37:13.166Z,5.32
2022-08-28T22:39:41.751Z,4.28
2022-08-28T22:42:09.964Z,6.32
2022-08-28T22:44:37.538Z,4.43
2022-08-28T22:47:05.394Z,5.68
2022-08-28T22:49:32.195Z,7.85
2022-08-28T22:51:59.353Z,7.20
2022-08-28T22:54:26.792Z,7.32
2022-08-28T22:56:53.679Z,13.85
2022-08-28T22:59:20.857Z,8.45
2022-08-28T23:01:48.023Z,9.07
2022-08-28T23:04:16.071Z,12.02
2022-08-28T23:06:43.125Z,11.32
2022-08-28T23:09:10.399Z,11.88
2022-08-28T23:11:38.061Z,10.15
2022-08-28T23:14:06.155Z,12.35
2022-08-28T23:16:35.290Z,12.30
2022-08-28T23:19:13.204Z,12.38
2022-08-28T23:21:43.981Z,10.07
2022-08-28T23:24:16.175Z,10.05
2022-08-28T23:26:45.248Z,8.68
2022-08-28T23:29:13.037Z,9.88
2022-08-28T23:31:40.440Z,10.68
2022-08-28T23:34:08.065Z,9.57
2022-08-28T23:36:36.526Z,11.65
2022-08-28T23:39:04.933Z,11.10
2022-08-28T23:41:33.620Z,11.00
2022-08-28T23:44:03.151Z,13.07
2022-08-28T23:46:32.547Z,13.73
2022-08-28T23:48:59.873Z,14.15
2022-08-28T23:51:26.740Z,17.35
2022-08-28T23:53:53.719Z,16.77
2022-08-28T23:56:20.873Z,15.00
2022-08-28T23:58:47.767Z,15.25
